Time;durP1;ratioP1;P1;durP2;ratioP2;P2;SDS_P1;SDS_P2;PMS_P1;PMS_P2;Temp;Humidity;BMP_temperature;BMP_pressure;BME280_temperature;BME280_humidity;BME280_pressure;Samples;Min_cycle;Max_cycle;Signal;HPM_P1;HPM_P2
2023/01/04 00:00:44;;;;;;;2.20;1.08;;;;;;;;;;5018882;28;20052;-65
2023/01/04 00:03:13;;;;;;;7.30;2.15;;;;;;;;;;5051871;28;20572;-65
2023/01/04 00:05:43;;;;;;;2.17;1.02;;;;;;;;;;5034913;28;20124;-65
2023/01/04 00:08:12;;;;;;;3.63;1.20;;;;;;;;;;5051614;28;20068;-65
2023/01/04 00:10:42;;;;;;;2.03;1.10;;;;;;;;;;5051767;28;20556;-66
2023/01/04 00:13:11;;;;;;;3.25;1.50;;;;;;;;;;5051696;28;20060;-66
2023/01/04 00:15:41;;;;;;;2.70;1.13;;;;;;;;;;5051578;28;20049;-66
2023/01/04 00:18:10;;;;;;;2.33;0.88;;;;;;;;;;5051700;28;20500;-65
2023/01/04 00:20:40;;;;;;;3.33;1.00;;;;;;;;;;5034935;28;20493;-65
2023/01/04 00:23:10;;;;;;;2.28;1.30;;;;;;;;;;5051651;28;20440;-65
2023/01/04 00:25:40;;;;;;;4.07;1.55;;;;;;;;;;5021486;28;20507;-65
2023/01/04 00:28:10;;;;;;;6.28;1.83;;;;;;;;;;5031449;28;20076;-65
2023/01/04 00:30:39;;;;;;;6.03;1.83;;;;;;;;;;5031524;28;20062;-65
2023/01/04 00:33:09;;;;;;;3.20;1.60;;;;;;;;;;4978922;28;20054;-65
2023/01/04 00:35:38;;;;;;;5.47;1.45;;;;;;;;;;5027320;28;20046;-64
2023/01/04 00:38:14;;;;;;;2.80;1.60;;;;;;;;;;5011445;28;20058;-64
2023/01/04 00:40:44;;;;;;;2.60;1.23;;;;;;;;;;4994946;28;20061;-64
2023/01/04 00:43:14;;;;;;;4.07;1.10;;;;;;;;;;5011820;28;20150;-64
2023/01/04 00:45:43;;;;;;;5.65;1.25;;;;;;;;;;5011368;28;20065;-64
2023/01/04 00:48:13;;;;;;;1.90;0.90;;;;;;;;;;4962628;28;20494;-65
2023/01/04 00:50:46;;;;;;;2.17;0.85;;;;;;;;;;5011136;28;20061;-64
2023/01/04 00:53:17;;;;;;;3.78;1.15;;;;;;;;;;5011266;28;20058;-64
2023/01/04 00:55:47;;;;;;;3.20;1.20;;;;;;;;;;5011032;28;20046;-64
2023/01/04 00:58:16;;;;;;;4.93;1.50;;;;;;;;;;4995342;28;20068;-64
2023/01/04 01:00:46;;;;;;;5.18;1.35;;;;;;;;;;5011027;28;20053;-64
2023/01/04 01:03:15;;;;;;;3.20;1.20;;;;;;;;;;5011155;28;20049;-64
2023/01/04 01:05:45;;;;;;;4.80;1.50;;;;;;;;;;4987525;28;20076;-64
2023/01/04 01:08:23;;;;;;;8.07;2.53;;;;;;;;;;5030752;28;20053;-65
2023/01/04 01:10:53;;;;;;;;;;;;;;;;;;5019999;28;20063;-64
2023/01/04 01:13:23;;;;;;;4.57;1.70;;;;;;;;;;5037413;28;19934;-64
2023/01/04 01:15:53;;;;;;;5.90;1.38;;;;;;;;;;5037330;28;20056;-64
2023/01/04 01:18:22;;;;;;;6.25;1.58;;;;;;;;;;5072642;28;20052;-64
2023/01/04 01:20:52;;;;;;;4.75;1.38;;;;;;;;;;5072629;28;20051;-64
2023/01/04 01:23:21;;;;;;;3.22;1.50;;;;;;;;;;5072951;28;20422;-64
2023/01/04 01:25:51;;;;;;;3.13;1.35;;;;;;;;;;5072426;28;20051;-64
2023/01/04 01:28:20;;;;;;;3.20;1.15;;;;;;;;;;5072464;28;20051;-64
2023/01/04 01:30:49;;;;;;;2.58;0.93;;;;;;;;;;5037144;28;20496;-65
2023/01/04 01:33:19;;;;;;;3.75;1.10;;;;;;;;;;5037378;28;20048;-65
2023/01/04 01:35:48;;;;;;;6.03;1.05;;;;;;;;;;5072352;28;20070;-64
2023/01/04 01:38:18;;;;;;;4.38;1.17;;;;;;;;;;5072689;28;20045;-65
2023/01/04 01:40:48;;;;;;;3.72;1.27;;;;;;;;;;5072318;28;20055;-65
2023/01/04 01:43:19;;;;;;;2.42;1.27;;;;;;;;;;5072344;28;20499;-64
2023/01/04 01:45:53;;;;;;;2.88;1.23;;;;;;;;;;5036562;28;20052;-64
2023/01/04 01:48:28;;;;;;;2.33;1.08;;;;;;;;;;5053283;28;20048;-64
2023/01/04 01:51:03;;;;;;;2.42;1.30;;;;;;;;;;5072113;28;20064;-63
2023/01/04 01:53:36;;;;;;;4.07;1.20;;;;;;;;;;5072106;28;20048;-64
2023/01/04 01:56:08;;;;;;;3.03;1.35;;;;;;;;;;5019835;28;20053;-64
2023/01/04 01:58:42;;;;;;;2.80;1.15;;;;;;;;;;5072106;28;20064;-64
2023/01/04 02:01:12;;;;;;;2.33;1.30;;;;;;;;;;5053308;28;20062;-64
2023/01/04 02:03:42;;;;;;;5.28;1.48;;;;;;;;;;5072101;28;20077;-64
2023/01/04 02:06:21;;;;;;;2.75;1.00;;;;;;;;;;5071676;28;20048;-64
2023/01/04 02:08:50;;;;;;;;;;;;;;;;;;5072327;28;20044;-65
2023/01/04 02:11:20;;;;;;;3.25;1.30;;;;;;;;;;5069694;28;19921;-64
2023/01/04 02:17:01;;;;;;;2.75;1.17;;;;;;;;;;4954457;28;20407;-64
2023/01/04 02:19:59;;;;;;;5.00;1.33;;;;;;;;;;4954516;28;20051;-63
2023/01/04 02:22:53;;;;;;;3.78;1.20;;;;;;;;;;4970892;28;20066;-62
2023/01/04 02:26:10;;;;;;;3.33;1.30;;;;;;;;;;4938649;28;20538;-62
2023/01/04 02:28:42;;;;;;;3.53;2.25;;;;;;;;;;4922940;28;20055;-62
2023/01/04 02:31:35;;;;;;;3.90;1.40;;;;;;;;;;4938379;28;20050;-63
2023/01/04 02:34:16;;;;;;;2.67;1.27;;;;;;;;;;4922930;28;20050;-61
2023/01/04 02:36:56;;;;;;;2.65;1.23;;;;;;;;;;4970447;28;20058;-62
2023/01/04 02:39:38;;;;;;;3.42;1.25;;;;;;;;;;4923033;28;20809;-62
2023/01/04 02:44:51;;;;;;;3.00;1.23;;;;;;;;;;4970812;28;20051;-62
2023/01/04 02:45:17;;;;;;;7.40;1.27;;;;;;;;;;4938211;28;20601;-62
2023/01/04 02:50:50;;;;;;;3.53;1.30;;;;;;;;;;4957090;28;20059;-62
2023/01/04 02:53:41;;;;;;;5.70;1.50;;;;;;;;;;4995077;28;20057;-61
2023/01/04 02:56:34;;;;;;;;;;;;;;;;;;5071866;28;20400;-62
2023/01/04 02:59:41;;;;;;;1.90;1.02;;;;;;;;;;5074592;28;19920;-62
2023/01/04 03:08:42;;;;;;;3.60;1.42;;;;;;;;;;5074980;28;20040;-62
2023/01/04 03:14:15;;;;;;;4.28;1.17;;;;;;;;;;5059603;28;21036;-62
2023/01/04 03:17:07;;;;;;;3.35;1.30;;;;;;;;;;5074915;28;20048;-62
2023/01/04 03:19:55;;;;;;;3.28;1.65;;;;;;;;;;5075127;28;20400;-61
2023/01/04 03:37:36;;;;;;;;;;;;;;;;;;4993414;28;20108;-62
2023/01/04 03:49:24;;;;;;;4.97;1.40;;;;;;;;;;4992685;28;20553;-62
2023/01/04 03:51:58;;;;;;;7.47;1.58;;;;;;;;;;4992704;28;20094;-62
2023/01/04 03:54:38;;;;;;;4.88;1.67;;;;;;;;;;4992647;28;20077;-62
2023/01/04 03:57:10;;;;;;;2.50;1.20;;;;;;;;;;4992624;28;20066;-62
2023/01/04 03:59:52;;;;;;;9.52;1.77;;;;;;;;;;4992908;28;20384;-62
2023/01/04 04:02:28;;;;;;;2.92;1.52;;;;;;;;;;4992265;28;20050;-63
2023/01/04 04:10:35;;;;;;;3.60;1.40;;;;;;;;;;5031063;28;20064;-62
2023/01/04 04:13:04;;;;;;;2.55;1.42;;;;;;;;;;4990317;28;20058;-62
2023/01/04 04:15:35;;;;;;;4.93;1.42;;;;;;;;;;4992662;28;20496;-62
2023/01/04 04:18:06;;;;;;;3.15;1.40;;;;;;;;;;4960030;28;20043;-62
2023/01/04 04:20:35;;;;;;;3.88;1.27;;;;;;;;;;4992649;28;20050;-62
2023/01/04 04:23:05;;;;;;;5.63;1.48;;;;;;;;;;4975880;28;20065;-62
2023/01/04 04:25:34;;;;;;;3.08;1.48;;;;;;;;;;4992469;28;20054;-62
2023/01/04 04:28:05;;;;;;;3.08;1.58;;;;;;;;;;4959362;28;20061;-62
2023/01/04 04:30:34;;;;;;;3.63;1.50;;;;;;;;;;4943986;28;20057;-62
2023/01/04 04:33:04;;;;;;;4.13;1.52;;;;;;;;;;4998325;28;20597;-62
2023/01/04 04:35:35;;;;;;;3.33;1.42;;;;;;;;;;5011389;28;20532;-62
2023/01/04 04:38:04;;;;;;;2.97;1.50;;;;;;;;;;4994887;28;20532;-63
2023/01/04 04:43:22;;;;;;;6.68;1.55;;;;;;;;;;5021467;28;20049;-62
2023/01/04 04:45:51;;;;;;;5.25;1.40;;;;;;;;;;5073384;28;20036;-63
2023/01/04 04:48:20;;;;;;;5.45;1.42;;;;;;;;;;5017721;28;20057;-63
2023/01/04 04:50:51;;;;;;;5.45;1.60;;;;;;;;;;5050808;28;20144;-62
2023/01/04 04:53:20;;;;;;;5.82;2.13;;;;;;;;;;5050966;28;20204;-62
2023/01/04 04:55:54;;;;;;;6.53;2.25;;;;;;;;;;5050919;28;20551;-62
2023/01/04 04:58:23;;;;;;;5.20;2.10;;;;;;;;;;5017359;28;20053;-61
2023/01/04 05:00:53;;;;;;;3.67;1.50;;;;;;;;;;5002505;28;20057;-62
2023/01/04 05:03:23;;;;;;;6.43;2.10;;;;;;;;;;5033657;28;20405;-62
2023/01/04 05:05:52;;;;;;;8.07;2.13;;;;;;;;;;5030533;28;20060;-62
2023/01/04 05:08:22;;;;;;;6.15;2.65;;;;;;;;;;5030239;28;20517;-62
2023/01/04 05:10:51;;;;;;;5.60;2.40;;;;;;;;;;5030772;28;20057;-62
2023/01/04 05:13:21;;;;;;;7.28;2.90;;;;;;;;;;4981372;28;20057;-62
2023/01/04 05:15:53;;;;;;;8.18;3.00;;;;;;;;;;4982226;28;20060;-62
2023/01/04 05:18:22;;;;;;;;;;;;;;;;;;5030967;28;20190;-62
2023/01/04 05:20:52;;;;;;;10.20;3.78;;;;;;;;;;5029887;28;20475;-62
2023/01/04 05:23:22;;;;;;;13.70;4.50;;;;;;;;;;4997115;28;20544;-63
2023/01/04 05:25:58;;;;;;;11.55;4.78;;;;;;;;;;5014157;28;20061;-62
2023/01/04 05:28:28;;;;;;;12.50;5.38;;;;;;;;;;4980997;28;20568;-61
2023/01/04 05:30:58;;;;;;;13.65;4.60;;;;;;;;;;5030206;28;20592;-61
2023/01/04 05:33:30;;;;;;;12.48;4.60;;;;;;;;;;5030370;28;20509;-61
2023/01/04 05:36:02;;;;;;;13.00;4.82;;;;;;;;;;5000777;28;20725;-61
2023/01/04 05:38:32;;;;;;;17.20;5.15;;;;;;;;;;5069957;28;20049;-62
2023/01/04 05:41:02;;;;;;;11.70;4.38;;;;;;;;;;5049875;28;20461;-62
2023/01/04 05:43:31;;;;;;;10.55;4.28;;;;;;;;;;5049942;28;20057;-62
2023/01/04 05:46:01;;;;;;;9.48;3.60;;;;;;;;;;5049797;28;20044;-62
2023/01/04 05:48:30;;;;;;;9.45;3.25;;;;;;;;;;5049724;28;20061;-62
2023/01/04 05:51:01;;;;;;;7.70;3.45;;;;;;;;;;5016734;28;20061;-63
2023/01/04 05:53:30;;;;;;;12.02;3.20;;;;;;;;;;5029731;28;20060;-62
2023/01/04 05:55:59;;;;;;;14.00;4.53;;;;;;;;;;5029912;28;20088;-62
2023/01/04 05:58:28;;;;;;;6.70;2.85;;;;;;;;;;5029871;28;20178;-62
2023/01/04 06:00:59;;;;;;;5.53;2.53;;;;;;;;;;4981876;28;20049;-61
2023/01/04 06:03:28;;;;;;;4.70;2.33;;;;;;;;;;5029772;28;20068;-62
2023/01/04 06:05:58;;;;;;;6.70;2.20;;;;;;;;;;5029989;28;20061;-61
2023/01/04 06:08:27;;;;;;;5.25;2.30;;;;;;;;;;5029503;28;20049;-62
2023/01/04 06:10:56;;;;;;;5.00;2.60;;;;;;;;;;4980718;28;20065;-62
2023/01/04 06:13:26;;;;;;;5.07;2.30;;;;;;;;;;4996409;28;20594;-60
2023/01/04 06:15:57;;;;;;;8.80;2.78;;;;;;;;;;4980466;28;20406;-61
2023/01/04 06:18:26;;;;;;;5.55;2.20;;;;;;;;;;5009386;28;20472;-62
2023/01/04 06:20:56;;;;;;;5.90;2.10;;;;;;;;;;5009717;28;20065;-62
2023/01/04 06:23:25;;;;;;;5.65;2.03;;;;;;;;;;4977323;28;20049;-61
2023/01/04 06:25:55;;;;;;;3.38;1.63;;;;;;;;;;4980332;28;20157;-61
2023/01/04 06:28:24;;;;;;;3.72;1.63;;;;;;;;;;5029686;28;20493;-60
2023/01/04 06:30:54;;;;;;;2.60;1.20;;;;;;;;;;5029401;28;20401;-61
2023/01/04 06:33:23;;;;;;;3.38;1.60;;;;;;;;;;5028855;28;20058;-62
2023/01/04 06:35:54;;;;;;;2.35;1.27;;;;;;;;;;5029505;28;20061;-61
2023/01/04 06:38:23;;;;;;;3.53;1.70;;;;;;;;;;4996809;28;20054;-62
2023/01/04 06:40:53;;;;;;;3.20;1.38;;;;;;;;;;5029283;28;20112;-61
2023/01/04 06:43:23;;;;;;;4.78;1.75;;;;;;;;;;5029225;28;20516;-62
2023/01/04 06:45:53;;;;;;;3.72;1.67;;;;;;;;;;5012602;28;20057;-62
2023/01/04 06:48:22;;;;;;;3.05;1.50;;;;;;;;;;5029058;28;20162;-62
2023/01/04 06:50:51;;;;;;;3.45;1.67;;;;;;;;;;5049060;28;20064;-63
2023/01/04 06:53:21;;;;;;;3.80;1.73;;;;;;;;;;5032842;28;20068;-62
2023/01/04 06:55:51;;;;;;;4.72;1.98;;;;;;;;;;5015383;28;20160;-62
2023/01/04 06:58:21;;;;;;;4.53;1.80;;;;;;;;;;5049175;28;20425;-62
2023/01/04 07:00:51;;;;;;;4.22;1.90;;;;;;;;;;5009251;28;20186;-63
2023/01/04 07:03:21;;;;;;;3.47;1.90;;;;;;;;;;5009497;28;20057;-62
2023/01/04 07:05:52;;;;;;;3.70;1.90;;;;;;;;;;5009069;28;20065;-62
2023/01/04 07:08:22;;;;;;;5.93;1.73;;;;;;;;;;5009603;28;20050;-62
2023/01/04 07:10:51;;;;;;;6.47;2.65;;;;;;;;;;5009424;28;20409;-61
2023/01/04 07:13:20;;;;;;;4.10;1.95;;;;;;;;;;4993159;28;20392;-62
2023/01/04 07:15:50;;;;;;;2.97;1.85;;;;;;;;;;4976839;28;20061;-62
2023/01/04 07:18:19;;;;;;;3.30;1.67;;;;;;;;;;5017922;28;20058;-62
2023/01/04 07:20:48;;;;;;;4.68;1.95;;;;;;;;;;4996759;28;20053;-62
2023/01/04 07:23:18;;;;;;;3.17;1.80;;;;;;;;;;5029263;28;20060;-62
2023/01/04 07:25:47;;;;;;;6.20;1.70;;;;;;;;;;4995810;28;20058;-64
2023/01/04 07:29:13;;;;;;;4.45;1.90;;;;;;;;;;5028923;28;20038;-62
2023/01/04 07:31:08;;;;;;;3.90;2.22;;;;;;;;;;5028795;28;20061;-62
2023/01/04 07:33:38;;;;;;;4.40;1.73;;;;;;;;;;4996018;28;20054;-62
2023/01/04 07:36:08;;;;;;;3.70;1.63;;;;;;;;;;5028831;28;20069;-62
2023/01/04 07:38:37;;;;;;;4.95;2.53;;;;;;;;;;5052747;28;20488;-62
2023/01/04 07:41:06;;;;;;;5.22;1.92;;;;;;;;;;5069842;28;20115;-61
2023/01/04 07:43:36;;;;;;;3.75;1.98;;;;;;;;;;5002717;28;20056;-62
2023/01/04 07:46:06;;;;;;;3.97;2.08;;;;;;;;;;5073571;28;20044;-62
2023/01/04 07:48:35;;;;;;;4.15;2.03;;;;;;;;;;5074508;28;20049;-62
2023/01/04 07:51:04;;;;;;;6.80;2.35;;;;;;;;;;5031701;28;20045;-62
2023/01/04 07:53:34;;;;;;;6.95;2.30;;;;;;;;;;5032351;28;20058;-62
2023/01/04 07:56:03;;;;;;;6.55;2.72;;;;;;;;;;5032174;28;20097;-62
2023/01/04 07:58:35;;;;;;;4.25;2.03;;;;;;;;;;5015976;28;20061;-62
2023/01/04 08:01:09;;;;;;;3.95;2.13;;;;;;;;;;5032407;28;20401;-62
2023/01/04 08:03:39;;;;;;;3.55;2.10;;;;;;;;;;5032115;28;20072;-63
2023/01/04 08:06:11;;;;;;;4.28;2.03;;;;;;;;;;5031993;28;20060;-62
2023/01/04 08:08:41;;;;;;;;;;;;;;;;;;5015706;28;20512;-62
2023/01/04 08:11:14;;;;;;;5.15;2.13;;;;;;;;;;5051620;28;20315;-62
2023/01/04 08:13:44;;;;;;;8.02;2.33;;;;;;;;;;5018576;28;21210;-62
2023/01/04 08:16:30;;;;;;;3.78;2.00;;;;;;;;;;5018382;28;20559;-64
2023/01/04 08:19:03;;;;;;;6.40;2.20;;;;;;;;;;5051802;28;20044;-62
2023/01/04 08:21:35;;;;;;;5.78;2.33;;;;;;;;;;5018179;28;20049;-62
2023/01/04 08:24:05;;;;;;;7.85;2.17;;;;;;;;;;5003035;28;20055;-62
2023/01/04 08:26:34;;;;;;;5.45;2.47;;;;;;;;;;5051507;28;20500;-62
2023/01/04 08:29:03;;;;;;;6.35;2.40;;;;;;;;;;5036860;28;20416;-63
2023/01/04 08:31:34;;;;;;;7.68;2.30;;;;;;;;;;5051600;28;20060;-63
2023/01/04 08:34:07;;;;;;;6.28;2.40;;;;;;;;;;5051447;28;20061;-63
2023/01/04 08:36:48;;;;;;;6.50;2.75;;;;;;;;;;5051191;28;20449;-63
2023/01/04 08:39:17;;;;;;;6.70;2.38;;;;;;;;;;5051085;28;20059;-64
2023/01/04 08:41:50;;;;;;;9.45;2.72;;;;;;;;;;5050860;28;20045;-64
2023/01/04 08:44:40;;;;;;;5.25;2.47;;;;;;;;;;5051117;28;20527;-64
2023/01/04 08:47:10;;;;;;;4.53;2.30;;;;;;;;;;5017855;28;20423;-64
2023/01/04 08:49:39;;;;;;;4.13;2.28;;;;;;;;;;5033981;28;20053;-63
2023/01/04 08:52:10;;;;;;;9.25;3.53;;;;;;;;;;5030834;28;20402;-63
2023/01/04 08:54:41;;;;;;;7.88;2.53;;;;;;;;;;5031134;28;20405;-63
2023/01/04 08:57:11;;;;;;;8.43;2.75;;;;;;;;;;4990978;28;20051;-63
2023/01/04 08:59:41;;;;;;;6.97;2.72;;;;;;;;;;4975108;28;20062;-63
2023/01/04 09:02:23;;;;;;;9.55;2.90;;;;;;;;;;4991335;28;20466;-63
2023/01/04 09:04:58;;;;;;;5.53;2.75;;;;;;;;;;4975131;28;20058;-63
2023/01/04 09:07:29;;;;;;;6.90;3.05;;;;;;;;;;5023657;28;20061;-64
2023/01/04 09:09:59;;;;;;;6.32;2.78;;;;;;;;;;4981845;28;20045;-63
2023/01/04 09:12:28;;;;;;;6.50;3.00;;;;;;;;;;4997502;28;20532;-63
2023/01/04 09:14:58;;;;;;;6.53;3.33;;;;;;;;;;5030725;28;20449;-64
2023/01/04 09:17:27;;;;;;;5.22;3.05;;;;;;;;;;5030519;28;20053;-64
2023/01/04 09:19:57;;;;;;;5.05;2.83;;;;;;;;;;5030672;28;20055;-63
2023/01/04 09:22:27;;;;;;;5.57;2.85;;;;;;;;;;5030459;28;20424;-64
2023/01/04 09:24:56;;;;;;;8.82;3.20;;;;;;;;;;5014250;28;20153;-64
2023/01/04 09:27:25;;;;;;;8.00;3.40;;;;;;;;;;5035709;28;20460;-64
2023/01/04 09:29:55;;;;;;;7.25;3.42;;;;;;;;;;5072418;28;20534;-64
2023/01/04 09:32:25;;;;;;;7.13;3.08;;;;;;;;;;5010284;28;20050;-64
2023/01/04 09:34:55;;;;;;;7.30;3.15;;;;;;;;;;4946938;28;20069;-64
2023/01/04 09:37:24;;;;;;;9.25;3.67;;;;;;;;;;5010470;28;20062;-64
2023/01/04 09:39:54;;;;;;;7.78;3.72;;;;;;;;;;4961493;28;20049;-64
2023/01/04 09:42:33;;;;;;;6.55;3.55;;;;;;;;;;5010582;28;20046;-64
2023/01/04 09:45:15;;;;;;;6.45;3.13;;;;;;;;;;5010428;28;20069;-63
2023/01/04 09:48:13;;;;;;;5.10;2.83;;;;;;;;;;5010144;28;20145;-63
2023/01/04 09:50:52;;;;;;;;;;;;;;;;;;5026691;28;20050;-63
2023/01/04 09:53:41;;;;;;;7.30;3.40;;;;;;;;;;4993866;28;19922;-63
2023/01/04 09:56:28;;;;;;;7.43;3.22;;;;;;;;;;5026277;28;20513;-63
2023/01/04 09:59:01;;;;;;;5.55;3.03;;;;;;;;;;5026527;28;20441;-63
2023/01/04 10:02:14;;;;;;;6.32;3.25;;;;;;;;;;4993621;28;20118;-63
2023/01/04 10:04:46;;;;;;;7.15;3.58;;;;;;;;;;4971047;28;20066;-63
2023/01/04 10:07:31;;;;;;;6.78;3.50;;;;;;;;;;4938381;28;20050;-63
2023/01/04 10:10:01;;;;;;;7.78;3.95;;;;;;;;;;4998970;28;20060;-63
2023/01/04 10:12:42;;;;;;;8.38;3.95;;;;;;;;;;4980643;28;20057;-63
2023/01/04 10:15:36;;;;;;;7.00;3.88;;;;;;;;;;5012768;28;20045;-63
2023/01/04 10:18:32;;;;;;;7.78;3.45;;;;;;;;;;5029235;28;20417;-63
2023/01/04 10:21:43;;;;;;;8.00;3.60;;;;;;;;;;4954345;28;20419;-63
2023/01/04 10:24:19;;;;;;;7.53;3.35;;;;;;;;;;4938224;28;20058;-64
2023/01/04 10:26:50;;;;;;;6.10;3.33;;;;;;;;;;4970713;28;20062;-63
2023/01/04 10:30:05;;;;;;;6.22;3.90;;;;;;;;;;4954136;28;20062;-63
2023/01/04 10:33:13;;;;;;;9.95;4.35;;;;;;;;;;4932110;29;20052;-63
2023/01/04 10:35:45;;;;;;;5.85;3.22;;;;;;;;;;4932288;29;20070;-63
2023/01/04 10:38:38;;;;;;;6.05;3.00;;;;;;;;;;4932024;29;20067;-63
2023/01/04 10:41:14;;;;;;;7.20;3.22;;;;;;;;;;4941261;29;20070;-63
2023/01/04 10:43:47;;;;;;;6.28;3.58;;;;;;;;;;4951435;29;20462;-63
2023/01/04 10:47:17;;;;;;;6.57;3.63;;;;;;;;;;4950978;29;20055;-63
2023/01/04 10:49:54;;;;;;;5.75;2.97;;;;;;;;;;4950604;29;20192;-63
2023/01/04 10:52:31;;;;;;;8.95;3.13;;;;;;;;;;4951036;29;20059;-63
2023/01/04 10:55:05;;;;;;;7.50;2.92;;;;;;;;;;4935363;29;20407;-63
2023/01/04 10:57:41;;;;;;;6.00;2.78;;;;;;;;;;4982631;28;20060;-63
2023/01/04 11:00:20;;;;;;;6.05;3.08;;;;;;;;;;5009163;28;20060;-63
2023/01/04 11:02:57;;;;;;;7.10;3.28;;;;;;;;;;4992883;28;20520;-63
2023/01/04 11:05:48;;;;;;;4.57;2.50;;;;;;;;;;5009692;28;20045;-64
2023/01/04 11:08:21;;;;;;;6.07;2.72;;;;;;;;;;5009698;28;20046;-64
2023/01/04 11:11:13;;;;;;;5.95;2.83;;;;;;;;;;5028994;28;20049;-63
2023/01/04 11:13:44;;;;;;;5.80;2.75;;;;;;;;;;5029139;28;20096;-65
2023/01/04 11:16:13;;;;;;;4.75;2.90;;;;;;;;;;5028882;28;20057;-63
2023/01/04 11:18:46;;;;;;;6.40;2.60;;;;;;;;;;5029366;28;20417;-63
2023/01/04 11:21:19;;;;;;;5.35;2.42;;;;;;;;;;5032768;28;20073;-63
2023/01/04 11:23:49;;;;;;;5.25;2.50;;;;;;;;;;5032702;28;20049;-63
2023/01/04 11:26:30;;;;;;;4.55;2.70;;;;;;;;;;5032825;28;20559;-64
2023/01/04 11:29:11;;;;;;;5.93;3.00;;;;;;;;;;4999557;28;20064;-64
2023/01/04 11:31:48;;;;;;;5.80;3.30;;;;;;;;;;5032839;28;20064;-64
2023/01/04 11:34:18;;;;;;;9.88;2.80;;;;;;;;;;5032566;28;20072;-63
2023/01/04 11:36:48;;;;;;;5.13;3.08;;;;;;;;;;5032651;28;20058;-64
2023/01/04 11:39:23;;;;;;;5.47;2.67;;;;;;;;;;5016271;28;20050;-64
2023/01/04 11:42:04;;;;;;;4.70;2.40;;;;;;;;;;5006923;28;20061;-64
2023/01/04 11:44:35;;;;;;;5.70;2.75;;;;;;;;;;5012889;28;20050;-63
2023/01/04 11:47:19;;;;;;;6.60;2.78;;;;;;;;;;5012492;28;20522;-64
2023/01/04 11:49:51;;;;;;;4.25;2.03;;;;;;;;;;5031788;28;20494;-63
2023/01/04 11:52:35;;;;;;;4.97;2.85;;;;;;;;;;5048147;28;20057;-63
2023/01/04 11:55:27;;;;;;;4.22;2.03;;;;;;;;;;5075237;28;20450;-63
2023/01/04 11:58:10;;;;;;;4.30;1.80;;;;;;;;;;5092498;28;20562;-63
2023/01/04 12:00:55;;;;;;;4.55;1.38;;;;;;;;;;5092219;28;20063;-62
2023/01/04 12:03:27;;;;;;;2.80;1.17;;;;;;;;;;5092232;28;20044;-63
2023/01/04 12:05:58;;;;;;;4.97;1.33;;;;;;;;;;5075231;28;20048;-63
2023/01/04 12:08:32;;;;;;;3.95;1.25;;;;;;;;;;5092147;28;20055;-63
2023/01/04 12:11:05;;;;;;;4.45;1.27;;;;;;;;;;5091973;28;20075;-63
2023/01/04 12:13:36;;;;;;;2.33;1.20;;;;;;;;;;5092008;28;20060;-63
2023/01/04 12:16:42;;;;;;;3.63;1.85;;;;;;;;;;5041964;28;20415;-62
2023/01/04 12:19:17;;;;;;;3.03;1.30;;;;;;;;;;5092186;28;20186;-62
2023/01/04 12:21:51;;;;;;;4.35;1.30;;;;;;;;;;5026198;28;20059;-62
2023/01/04 12:24:23;;;;;;;2.72;1.23;;;;;;;;;;5073793;28;20048;-62
2023/01/04 12:26:54;;;;;;;2.47;1.20;;;;;;;;;;5038198;28;20059;-63
2023/01/04 12:29:24;;;;;;;3.58;1.55;;;;;;;;;;5073636;28;20511;-63
2023/01/04 12:32:16;;;;;;;3.20;1.77;;;;;;;;;;5038969;28;20052;-62
2023/01/04 12:34:47;;;;;;;2.50;1.40;;;;;;;;;;5021871;28;20048;-63
2023/01/04 12:37:44;;;;;;;3.28;1.30;;;;;;;;;;5055438;28;20048;-63
2023/01/04 12:40:46;;;;;;;3.40;1.58;;;;;;;;;;5073749;28;20059;-63
2023/01/04 12:43:16;;;;;;;3.97;1.80;;;;;;;;;;5038210;28;20385;-63
2023/01/04 12:49:02;;;;;;;3.33;1.80;;;;;;;;;;5073162;28;20045;-63
2023/01/04 12:51:27;;;;;;;3.72;2.00;;;;;;;;;;5037793;28;20052;-63
2023/01/04 12:54:02;;;;;;;2.42;1.60;;;;;;;;;;5022041;28;20056;-63
2023/01/04 12:57:30;;;;;;;3.72;1.30;;;;;;;;;;5054483;28;20400;-62
2023/01/04 13:00:10;;;;;;;4.35;1.55;;;;;;;;;;4971841;28;20062;-63
2023/01/04 13:03:07;;;;;;;2.85;1.83;;;;;;;;;;4955589;28;20065;-63
2023/01/04 13:05:38;;;;;;;3.97;1.60;;;;;;;;;;4972037;28;20062;-63
2023/01/04 13:08:25;;;;;;;4.05;1.77;;;;;;;;;;4972054;28;20503;-63
2023/01/04 13:10:56;;;;;;;4.85;2.10;;;;;;;;;;4939564;28;20059;-63
2023/01/04 13:13:34;;;;;;;3.13;1.40;;;;;;;;;;4972001;28;20058;-64
2023/01/04 13:16:25;;;;;;;4.80;1.60;;;;;;;;;;4955762;28;20065;-63
2023/01/04 13:18:56;;;;;;;3.95;1.67;;;;;;;;;;4939543;28;20062;-63
2023/01/04 13:21:32;;;;;;;3.85;1.70;;;;;;;;;;4939107;28;20057;-63
2023/01/04 13:24:04;;;;;;;3.17;1.58;;;;;;;;;;4955187;28;20062;-63
2023/01/04 13:26:34;;;;;;;2.53;1.58;;;;;;;;;;4971995;28;20063;-63
2023/01/04 13:29:10;;;;;;;3.40;1.88;;;;;;;;;;4939595;28;20063;-64
2023/01/04 13:32:05;;;;;;;3.75;1.80;;;;;;;;;;4945403;28;20503;-63
2023/01/04 13:34:45;;;;;;;3.60;1.58;;;;;;;;;;4973081;28;20058;-63
2023/01/04 13:37:20;;;;;;;2.35;1.33;;;;;;;;;;5064276;28;20063;-63
2023/01/04 13:40:00;;;;;;;4.15;1.50;;;;;;;;;;5069909;28;20045;-63
2023/01/04 13:42:41;;;;;;;3.45;1.55;;;;;;;;;;5069417;28;20072;-64
2023/01/04 13:45:28;;;;;;;3.63;1.98;;;;;;;;;;5070239;28;20045;-64
2023/01/04 13:48:03;;;;;;;3.20;1.40;;;;;;;;;;5052856;28;20056;-63
2023/01/04 13:50:45;;;;;;;2.72;1.30;;;;;;;;;;5037040;28;20044;-62
2023/01/04 13:53:24;;;;;;;4.70;1.65;;;;;;;;;;5069635;28;20059;-63
2023/01/04 13:55:57;;;;;;;3.05;1.00;;;;;;;;;;4988629;28;20048;-63
2023/01/04 13:58:32;;;;;;;3.15;1.10;;;;;;;;;;5020192;28;20507;-63
2023/01/04 14:01:22;;;;;;;1.05;0.60;;;;;;;;;;5036111;28;20056;-63
2023/01/04 14:03:57;;;;;;;4.05;1.20;;;;;;;;;;5036412;28;20056;-62
2023/01/04 14:06:32;;;;;;;1.85;0.85;;;;;;;;;;5069605;28;20047;-63
2023/01/04 14:09:12;;;;;;;1.13;0.85;;;;;;;;;;5036815;28;20063;-63
2023/01/04 14:11:57;;;;;;;1.13;0.63;;;;;;;;;;5072080;28;20048;-64
2023/01/04 14:14:57;;;;;;;1.77;1.00;;;;;;;;;;5070984;28;20048;-63
2023/01/04 14:17:48;;;;;;;2.95;1.05;;;;;;;;;;5053825;28;20063;-63
2023/01/04 14:20:23;;;;;;;4.07;1.88;;;;;;;;;;5019836;28;20055;-62
2023/01/04 14:22:55;;;;;;;2.25;1.35;;;;;;;;;;5072036;28;20074;-63
2023/01/04 14:25:34;;;;;;;1.95;0.80;;;;;;;;;;5071531;28;20053;-62
2023/01/04 14:28:31;;;;;;;2.22;0.95;;;;;;;;;;5019736;28;20060;-63
2023/01/04 14:31:05;;;;;;;1.50;0.80;;;;;;;;;;5071694;28;20052;-63
2023/01/04 14:33:40;;;;;;;1.92;0.70;;;;;;;;;;5009491;28;20498;-63
2023/01/04 14:36:20;;;;;;;2.30;0.80;;;;;;;;;;4976980;28;20057;-62
2023/01/04 14:39:05;;;;;;;1.70;1.08;;;;;;;;;;5009436;28;20062;-62
2023/01/04 14:41:37;;;;;;;2.63;1.08;;;;;;;;;;5009779;28;20058;-63
2023/01/04 14:44:11;;;;;;;3.53;0.90;;;;;;;;;;4977479;28;20068;-62
2023/01/04 14:46:45;;;;;;;1.92;1.08;;;;;;;;;;5009297;28;20157;-63
2023/01/04 14:49:16;;;;;;;1.45;0.60;;;;;;;;;;5009587;28;20049;-62
2023/01/04 14:51:54;;;;;;;1.42;0.68;;;;;;;;;;5009655;28;20422;-63
2023/01/04 14:54:26;;;;;;;1.25;0.60;;;;;;;;;;4978866;28;20077;-62
2023/01/04 14:56:56;;;;;;;;;;;;;;;;;;5013868;28;20549;-62
2023/01/04 14:59:27;;;;;;;1.02;0.40;;;;;;;;;;5013338;28;20344;-63
2023/01/04 15:01:57;;;;;;;0.50;0.25;;;;;;;;;;5013464;28;20153;-62
2023/01/04 15:04:27;;;;;;;0.90;0.57;;;;;;;;;;4980758;28;20486;-63
2023/01/04 15:06:58;;;;;;;2.10;0.55;;;;;;;;;;4996866;28;20065;-63
2023/01/04 15:09:29;;;;;;;1.58;0.52;;;;;;;;;;5013467;28;20045;-63
2023/01/04 15:11:59;;;;;;;1.70;0.77;;;;;;;;;;5063882;28;20066;-63
2023/01/04 15:14:28;;;;;;;0.70;0.60;;;;;;;;;;5023044;28;20048;-63
2023/01/04 15:16:57;;;;;;;1.58;0.73;;;;;;;;;;5075333;28;20119;-63
2023/01/04 15:19:27;;;;;;;1.10;0.60;;;;;;;;;;5075152;28;21070;-63
2023/01/04 15:22:05;;;;;;;1.23;0.50;;;;;;;;;;5075256;28;20052;-63
2023/01/04 15:24:35;;;;;;;1.65;0.60;;;;;;;;;;5074528;28;20056;-63
2023/01/04 15:27:04;;;;;;;0.68;0.40;;;;;;;;;;5023206;28;20071;-63
2023/01/04 15:29:34;;;;;;;1.08;0.60;;;;;;;;;;5056233;28;20416;-63
2023/01/04 15:32:03;;;;;;;1.63;0.47;;;;;;;;;;5074826;28;20040;-63
2023/01/04 15:34:33;;;;;;;1.77;1.00;;;;;;;;;;5074703;28;20396;-63
2023/01/04 15:37:02;;;;;;;1.05;0.40;;;;;;;;;;5075037;28;20051;-63
2023/01/04 15:39:32;;;;;;;0.80;0.50;;;;;;;;;;5023470;28;20056;-63
2023/01/04 15:44:49;;;;;;;0.95;0.43;;;;;;;;;;4983202;28;20037;-63
2023/01/04 15:47:19;;;;;;;1.00;0.55;;;;;;;;;;5032264;28;20069;-62
2023/01/04 15:49:48;;;;;;;0.55;0.40;;;;;;;;;;5032041;28;20506;-62
2023/01/04 15:52:18;;;;;;;0.75;0.38;;;;;;;;;;4999304;28;20050;-63
2023/01/04 15:54:47;;;;;;;0.70;0.43;;;;;;;;;;5032208;28;20054;-63
2023/01/04 15:57:16;;;;;;;2.08;0.50;;;;;;;;;;4999679;28;20056;-62
2023/01/04 15:59:47;;;;;;;0.55;0.40;;;;;;;;;;5031834;28;20057;-63
2023/01/04 16:02:17;;;;;;;1.50;0.63;;;;;;;;;;4999639;28;20065;-63
2023/01/04 16:04:48;;;;;;;1.42;0.50;;;;;;;;;;5031745;28;20061;-63
2023/01/04 16:07:18;;;;;;;0.70;0.50;;;;;;;;;;5031389;28;20050;-62
2023/01/04 16:09:48;;;;;;;1.25;0.50;;;;;;;;;;5031765;28;20057;-63
2023/01/04 16:15:07;;;;;;;0.70;0.40;;;;;;;;;;5037905;28;20488;-63
2023/01/04 16:17:37;;;;;;;0.80;0.50;;;;;;;;;;5039642;28;20114;-63
2023/01/04 16:20:08;;;;;;;1.40;0.45;;;;;;;;;;5073864;28;20044;-62
2023/01/04 16:22:37;;;;;;;0.82;0.52;;;;;;;;;;5011672;28;20061;-63
2023/01/04 16:25:08;;;;;;;1.35;0.60;;;;;;;;;;5012040;28;20054;-62
2023/01/04 16:27:40;;;;;;;1.20;0.65;;;;;;;;;;4992256;28;20410;-63